Time;durP1;ratioP1;P1;durP2;ratioP2;P2;SDS_P1;SDS_P2;PMS_P1;PMS_P2;Temp;Humidity;BMP_temperature;BMP_pressure;BME280_temperature;BME280_humidity;BME280_pressure;Samples;Min_cycle;Max_cycle;Signal;HPM_P1;HPM_P2
2021/12/19 00:00:53;;;;;;;;;;;21.10;50.90;;;;;;5113530;28;19923;-51
2021/12/19 00:03:36;;;;;;;;;;;21.10;50.90;;;;;;5114649;28;19959;-51
2021/12/19 00:08:50;;;;;;;;;;;21.10;50.90;;;;;;5114114;28;19946;-56
2021/12/19 00:11:18;;;;;;;;;;;21.10;50.90;;;;;;5114520;28;19924;-53
2021/12/19 00:13:45;;;;;;;;;;;21.10;50.90;;;;;;5115385;28;20316;-57
2021/12/19 00:16:12;;;;;;;;;;;21.10;50.90;;;;;;5112934;28;19949;-57
2021/12/19 00:18:41;;;;;;;;;;;21.20;51.00;;;;;;5114144;28;19924;-49
2021/12/19 00:21:08;;;;;;;;;;;21.10;50.90;;;;;;5114972;28;19971;-55
2021/12/19 00:23:39;;;;;;;;;;;21.10;50.90;;;;;;5113826;28;19983;-51
2021/12/19 00:26:06;;;;;;;;;;;21.10;50.90;;;;;;5114374;28;20272;-51
2021/12/19 00:28:33;;;;;;;;;;;21.10;50.90;;;;;;5113987;28;19923;-56
2021/12/19 00:31:00;;;;;;;;;;;21.10;50.90;;;;;;5112670;28;19967;-48
2021/12/19 00:33:27;;;;;;;;;;;21.10;51.00;;;;;;5114336;28;19977;-52
2021/12/19 00:35:54;;;;;;;;;;;21.10;51.00;;;;;;5113973;28;19977;-58
2021/12/19 00:38:21;;;;;;;;;;;21.10;51.00;;;;;;5095986;28;19924;-48
2021/12/19 00:40:49;;;;;;;;;;;21.10;51.00;;;;;;5114100;28;19973;-56
2021/12/19 00:43:25;;;;;;;;;;;21.10;51.00;;;;;;5114212;28;19971;-58
2021/12/19 00:45:53;;;;;;;;;;;21.10;51.00;;;;;;5113108;28;19927;-52
2021/12/19 00:48:20;;;;;;;;;;;21.10;51.00;;;;;;5114119;28;19990;-48
2021/12/19 00:50:47;;;;;;;;;;;21.10;51.00;;;;;;5113836;28;19936;-50
2021/12/19 00:53:15;;;;;;;;;;;21.10;51.00;;;;;;5113932;28;20002;-50
2021/12/19 00:55:42;;;;;;;;;;;21.10;51.00;;;;;;5113806;28;19971;-52
2021/12/19 00:58:09;;;;;;;;;;;21.10;51.00;;;;;;5114097;28;19928;-57
2021/12/19 01:00:36;;;;;;;;;;;21.10;51.00;;;;;;5112947;28;20521;-52
2021/12/19 01:03:04;;;;;;;;;;;21.00;50.90;;;;;;5114068;28;20341;-52
2021/12/19 01:05:34;;;;;;;;;;;21.00;50.90;;;;;;5114026;28;20011;-51
2021/12/19 01:08:01;;;;;;;;;;;21.00;50.90;;;;;;5117065;28;19967;-47
2021/12/19 01:10:28;;;;;;;;;;;21.00;50.90;;;;;;5117385;28;19923;-51
2021/12/19 01:12:55;;;;;;;;;;;21.00;51.00;;;;;;5117479;28;19924;-57
2021/12/19 01:15:22;;;;;;;;;;;21.00;50.90;;;;;;5116947;27;20036;-57
2021/12/19 01:17:50;;;;;;;;;;;21.00;51.00;;;;;;5117686;28;20336;-52
2021/12/19 01:20:19;;;;;;;;;;;21.00;51.00;;;;;;5099653;28;19924;-52
2021/12/19 01:22:46;;;;;;;;;;;21.00;51.00;;;;;;5116934;28;20538;-58
2021/12/19 01:25:13;;;;;;;;;;;21.00;51.00;;;;;;5099533;28;19976;-56
2021/12/19 01:27:40;;;;;;;;;;;21.00;51.00;;;;;;5117448;28;20018;-51
2021/12/19 01:30:08;;;;;;;;;;;21.10;51.10;;;;;;5117475;28;19959;-58
2021/12/19 01:32:35;;;;;;;;;;;21.10;51.10;;;;;;5116382;28;20010;-55
2021/12/19 01:35:03;;;;;;;;;;;21.00;51.00;;;;;;5117385;28;19977;-50
2021/12/19 01:37:29;;;;;;;;;;;21.00;51.00;;;;;;5117316;28;20014;-50
2021/12/19 01:39:56;;;;;;;;;;;21.00;51.00;;;;;;5116835;28;19928;-56
2021/12/19 01:42:34;;;;;;;;;;;21.00;51.00;;;;;;5116936;28;19977;-52
2021/12/19 01:45:02;;;;;;;;;;;21.00;51.00;;;;;;5116881;28;19970;-52
2021/12/19 01:47:29;;;;;;;;;;;21.00;51.00;;;;;;5115870;27;20317;-55
2021/12/19 01:49:57;;;;;;;;;;;21.00;51.00;;;;;;5116740;28;20407;-52
2021/12/19 01:52:24;;;;;;;;;;;21.00;51.00;;;;;;5116856;28;19981;-51
2021/12/19 01:54:51;;;;;;;;;;;21.00;51.00;;;;;;5117016;28;20014;-52
2021/12/19 01:57:18;;;;;;;;;;;21.00;51.00;;;;;;5116978;28;20263;-55
2021/12/19 01:59:45;;;;;;;;;;;21.00;51.00;;;;;;5116609;28;19927;-55
2021/12/19 02:02:12;;;;;;;;;;;21.00;51.00;;;;;;5116011;27;19924;-55
2021/12/19 02:04:39;;;;;;;;;;;21.00;51.00;;;;;;5116829;28;19924;-57
2021/12/19 02:07:06;;;;;;;;;;;21.00;51.10;;;;;;5116698;28;19988;-53
2021/12/19 02:09:33;;;;;;;;;;;21.00;51.10;;;;;;5116289;28;19923;-53
2021/12/19 02:11:59;;;;;;;;;;;20.90;51.00;;;;;;5116695;28;19923;-47
2021/12/19 02:14:26;;;;;;;;;;;21.00;51.10;;;;;;5116282;28;19977;-52
2021/12/19 02:16:53;;;;;;;;;;;20.90;51.00;;;;;;5116075;27;19927;-52
2021/12/19 02:19:20;;;;;;;;;;;20.90;51.00;;;;;;5116063;28;20441;-52
2021/12/19 02:21:47;;;;;;;;;;;20.90;51.00;;;;;;5115975;28;19924;-48
2021/12/19 02:24:15;;;;;;;;;;;20.90;51.00;;;;;;5116292;28;19924;-53
2021/12/19 02:26:43;;;;;;;;;;;20.90;51.00;;;;;;5116090;28;19924;-49
2021/12/19 02:29:11;;;;;;;;;;;20.90;51.00;;;;;;5116815;28;19924;-56
2021/12/19 02:31:38;;;;;;;;;;;20.90;51.00;;;;;;5115278;27;19928;-47
2021/12/19 02:37:14;;;;;;;;;;;20.90;51.00;;;;;;5116732;28;19968;-56
2021/12/19 02:50:28;;;;;;;;;;;20.90;51.10;;;;;;5115981;28;19924;-51
2021/12/19 02:52:55;;;;;;;;;;;20.90;51.00;;;;;;5115678;28;20336;-57
2021/12/19 02:55:22;;;;;;;;;;;21.00;51.20;;;;;;5115827;28;20280;-58
2021/12/19 02:57:49;;;;;;;;;;;20.90;51.10;;;;;;5115434;28;19963;-52
2021/12/19 03:00:19;;;;;;;;;;;20.90;51.10;;;;;;5115683;28;19972;-55
2021/12/19 03:02:46;;;;;;;;;;;20.90;51.10;;;;;;5114563;28;19927;-54
2021/12/19 03:05:13;;;;;;;;;;;20.90;51.10;;;;;;5115623;28;19931;-50
2021/12/19 03:07:42;;;;;;;;;;;20.90;51.10;;;;;;5115484;28;19923;-54
2021/12/19 03:18:13;;;;;;;;;;;20.90;51.10;;;;;;5113875;28;20420;-55
2021/12/19 03:20:42;;;;;;;;;;;20.90;51.10;;;;;;5115315;28;20329;-52
2021/12/19 03:23:10;;;;;;;;;;;20.90;51.10;;;;;;5114768;28;19924;-52
2021/12/19 03:25:37;;;;;;;;;;;20.90;51.10;;;;;;5114898;28;19977;-57
2021/12/19 03:28:06;;;;;;;;;;;20.90;51.10;;;;;;5115641;28;20425;-53
2021/12/19 03:30:33;;;;;;;;;;;20.90;51.10;;;;;;5096645;28;19923;-57
2021/12/19 03:33:00;;;;;;;;;;;20.90;51.10;;;;;;5113791;28;19955;-49
2021/12/19 03:35:29;;;;;;;;;;;20.90;51.10;;;;;;5115078;28;19969;-48
2021/12/19 03:37:58;;;;;;;;;;;20.90;51.10;;;;;;5114987;28;19928;-58
2021/12/19 03:40:35;;;;;;;;;;;20.90;51.10;;;;;;5114553;28;19923;-54
2021/12/19 03:43:06;;;;;;;;;;;20.90;51.10;;;;;;5114646;28;20432;-52
2021/12/19 03:45:34;;;;;;;;;;;20.90;51.10;;;;;;5114954;28;19978;-54
2021/12/19 03:48:03;;;;;;;;;;;20.90;51.10;;;;;;5113299;28;19971;-56
2021/12/19 03:50:33;;;;;;;;;;;20.90;51.20;;;;;;5114828;28;19924;-51
2021/12/19 03:53:00;;;;;;;;;;;20.90;51.20;;;;;;5114613;28;19924;-55
2021/12/19 03:55:27;;;;;;;;;;;20.80;51.10;;;;;;5114429;28;19974;-57
2021/12/19 03:57:57;;;;;;;;;;;20.90;51.20;;;;;;5114430;28;19923;-57
2021/12/19 04:00:26;;;;;;;;;;;20.80;51.10;;;;;;5114408;28;19936;-56
2021/12/19 04:02:55;;;;;;;;;;;20.80;51.10;;;;;;5113542;27;19923;-53
2021/12/19 04:05:22;;;;;;;;;;;20.80;51.10;;;;;;5114611;28;19969;-53
2021/12/19 04:07:50;;;;;;;;;;;20.90;51.20;;;;;;5114213;28;19981;-52
2021/12/19 04:10:17;;;;;;;;;;;20.80;51.10;;;;;;5114417;28;19928;-52
2021/12/19 04:12:44;;;;;;;;;;;20.80;51.10;;;;;;5114211;28;19924;-53
2021/12/19 04:15:11;;;;;;;;;;;20.80;51.10;;;;;;5114536;28;19924;-50
2021/12/19 04:17:39;;;;;;;;;;;20.80;51.10;;;;;;5113221;28;19970;-53
2021/12/19 04:20:06;;;;;;;;;;;20.80;51.10;;;;;;5114179;28;19978;-56
2021/12/19 04:22:33;;;;;;;;;;;20.80;51.10;;;;;;5113975;28;20340;-56
2021/12/19 04:25:00;;;;;;;;;;;20.80;51.10;;;;;;5114119;28;19924;-55
2021/12/19 04:27:29;;;;;;;;;;;20.80;51.10;;;;;;5114411;28;20328;-52
2021/12/19 04:29:56;;;;;;;;;;;20.80;51.10;;;;;;5114296;28;19924;-56
2021/12/19 04:32:28;;;;;;;;;;;20.80;51.10;;;;;;5114164;28;19924;-50
2021/12/19 04:34:55;;;;;;;;;;;20.80;51.10;;;;;;5114040;28;19931;-57
2021/12/19 04:40:25;;;;;;;;;;;20.80;51.10;;;;;;5113872;28;19969;-48
2021/12/19 04:51:36;;;;;;;;;;;20.80;51.20;;;;;;5117979;28;19924;-55
2021/12/19 04:57:02;;;;;;;;;;;20.80;51.10;;;;;;5117885;28;19924;-54
2021/12/19 05:15:54;;;;;;;;;;;20.80;51.20;;;;;;5117803;28;19968;-55
2021/12/19 05:18:26;;;;;;;;;;;20.80;51.20;;;;;;5116572;27;20344;-55
2021/12/19 05:21:03;;;;;;;;;;;20.80;51.20;;;;;;5117417;28;20375;-57
2021/12/19 05:25:58;;;;;;;;;;;20.80;51.20;;;;;;5117586;28;20032;-52
2021/12/19 05:28:25;;;;;;;;;;;20.80;51.20;;;;;;5117162;28;20415;-54
2021/12/19 05:30:52;;;;;;;;;;;20.80;51.20;;;;;;5117184;28;20043;-52
2021/12/19 05:33:19;;;;;;;;;;;20.80;51.20;;;;;;5116133;27;19924;-55
2021/12/19 05:46:31;;;;;;;;;;;20.80;51.20;;;;;;5117255;28;19924;-59
2021/12/19 05:48:58;;;;;;;;;;;20.80;51.80;;;;;;5115435;27;19923;-53
2021/12/19 05:51:25;;;;;;;;;;;20.80;51.20;;;;;;5117108;28;19967;-57
2021/12/19 05:53:52;;;;;;;;;;;20.70;51.10;;;;;;5116015;28;20019;-53
2021/12/19 05:56:19;;;;;;;;;;;20.80;51.20;;;;;;5116989;28;19969;-48
2021/12/19 05:58:46;;;;;;;;;;;20.70;51.10;;;;;;5116635;28;19969;-57
2021/12/19 06:01:13;;;;;;;;;;;20.80;51.20;;;;;;5116552;28;20007;-52
2021/12/19 06:03:40;;;;;;;;;;;20.70;51.10;;;;;;5097320;27;20015;-49
2021/12/19 06:06:07;;;;;;;;;;;20.70;51.10;;;;;;5116493;28;19928;-50
2021/12/19 06:08:34;;;;;;;;;;;20.70;51.10;;;;;;5116542;28;19969;-52
2021/12/19 06:11:01;;;;;;;;;;;20.70;51.20;;;;;;5116402;28;20425;-53
2021/12/19 06:13:28;;;;;;;;;;;20.70;51.20;;;;;;5116666;28;19973;-59
2021/12/19 06:15:57;;;;;;;;;;;20.70;51.10;;;;;;5116309;28;20014;-57
2021/12/19 06:18:24;;;;;;;;;;;20.70;51.20;;;;;;5116183;28;19928;-49
2021/12/19 06:20:51;;;;;;;;;;;20.70;51.10;;;;;;5114954;27;20415;-54
2021/12/19 06:23:18;;;;;;;;;;;20.70;51.20;;;;;;5115794;28;19971;-51
2021/12/19 06:25:48;;;;;;;;;;;20.70;51.20;;;;;;5116406;28;19923;-54
2021/12/19 06:28:16;;;;;;;;;;;20.80;51.20;;;;;;5115991;28;19924;-48
2021/12/19 06:30:43;;;;;;;;;;;20.70;51.20;;;;;;5116006;28;19977;-55
2021/12/19 06:33:10;;;;;;;;;;;20.70;51.10;;;;;;5115991;28;19931;-54
2021/12/19 06:35:37;;;;;;;;;;;20.70;51.20;;;;;;5114719;27;20390;-54
2021/12/19 06:38:06;;;;;;;;;;;20.70;51.20;;;;;;5116067;28;19924;-50
2021/12/19 06:40:33;;;;;;;;;;;20.70;51.20;;;;;;5116134;28;19924;-48
2021/12/19 06:43:00;;;;;;;;;;;20.70;51.20;;;;;;5116118;28;20344;-55
2021/12/19 06:45:27;;;;;;;;;;;20.70;51.20;;;;;;5115722;28;20391;-54
2021/12/19 06:47:54;;;;;;;;;;;20.70;51.20;;;;;;5115679;28;20023;-50
2021/12/19 06:50:23;;;;;;;;;;;20.70;51.20;;;;;;5114298;27;19924;-55
2021/12/19 06:52:50;;;;;;;;;;;20.70;51.10;;;;;;5115744;28;20298;-52
2021/12/19 06:55:17;;;;;;;;;;;20.70;51.20;;;;;;5115529;28;20302;-57
2021/12/19 06:57:44;;;;;;;;;;;20.70;51.20;;;;;;5115476;28;19971;-48
2021/12/19 07:00:13;;;;;;;;;;;20.70;51.20;;;;;;5116491;28;19924;-55
2021/12/19 07:02:40;;;;;;;;;;;20.70;51.10;;;;;;5115683;28;20015;-55
2021/12/19 07:05:08;;;;;;;;;;;20.70;51.20;;;;;;5113666;28;20280;-57
2021/12/19 07:07:35;;;;;;;;;;;20.70;51.20;;;;;;5115610;28;19969;-50
2021/12/19 07:10:03;;;;;;;;;;;20.70;51.20;;;;;;5115078;28;19924;-53
2021/12/19 07:12:30;;;;;;;;;;;20.70;51.20;;;;;;5116041;28;19932;-50
2021/12/19 07:14:57;;;;;;;;;;;20.70;51.20;;;;;;5115471;28;19924;-54
2021/12/19 07:17:25;;;;;;;;;;;20.70;51.20;;;;;;5115985;28;19923;-54
2021/12/19 07:19:52;;;;;;;;;;;20.70;51.20;;;;;;5113856;28;19924;-50
2021/12/19 07:22:19;;;;;;;;;;;20.70;51.20;;;;;;5093363;28;19959;-50
2021/12/19 07:24:46;;;;;;;;;;;20.70;51.20;;;;;;5094984;28;19966;-52
2021/12/19 07:27:13;;;;;;;;;;;20.70;51.20;;;;;;5094611;28;19967;-56
2021/12/19 07:29:40;;;;;;;;;;;20.70;51.20;;;;;;5094823;28;19947;-53
2021/12/19 07:32:07;;;;;;;;;;;20.70;51.10;;;;;;5094553;28;20127;-57
2021/12/19 07:34:37;;;;;;;;;;;20.70;51.20;;;;;;5093250;28;19985;-54
2021/12/19 07:37:04;;;;;;;;;;;20.70;51.10;;;;;;5094476;28;20010;-52
2021/12/19 07:42:01;;;;;;;;;;;20.70;51.20;;;;;;5094673;28;19955;-49
2021/12/19 07:44:28;;;;;;;;;;;20.70;51.20;;;;;;5094627;28;20333;-50
2021/12/19 07:46:55;;;;;;;;;;;20.70;51.10;;;;;;5094280;28;19970;-52
2021/12/19 07:49:22;;;;;;;;;;;20.70;51.10;;;;;;5094488;28;19928;-54
2021/12/19 07:51:49;;;;;;;;;;;20.70;51.10;;;;;;5092998;28;19930;-51
2021/12/19 07:54:16;;;;;;;;;;;20.70;51.10;;;;;;5094313;28;20358;-57
2021/12/19 07:56:43;;;;;;;;;;;20.70;51.10;;;;;;5093302;28;19975;-57
2021/12/19 07:59:10;;;;;;;;;;;20.70;51.10;;;;;;5092946;28;20291;-46
2021/12/19 08:01:37;;;;;;;;;;;20.70;51.10;;;;;;5094031;28;19950;-55
2021/12/19 08:04:04;;;;;;;;;;;20.70;51.10;;;;;;5095209;28;20010;-48
2021/12/19 08:06:31;;;;;;;;;;;20.70;51.10;;;;;;5092922;28;19978;-56
2021/12/19 08:09:09;;;;;;;;;;;20.70;51.00;;;;;;5093778;28;19924;-48
2021/12/19 08:11:40;;;;;;;;;;;20.70;51.00;;;;;;5093981;28;19924;-53
2021/12/19 08:14:12;;;;;;;;;;;20.70;51.00;;;;;;5094243;28;19924;-57
2021/12/19 08:16:40;;;;;;;;;;;20.70;51.00;;;;;;5094058;28;19962;-56
2021/12/19 08:19:07;;;;;;;;;;;20.70;51.00;;;;;;5094192;28;20291;-57
2021/12/19 08:21:34;;;;;;;;;;;20.70;51.00;;;;;;5092885;28;19924;-55
2021/12/19 08:24:02;;;;;;;;;;;20.70;51.00;;;;;;5112938;28;20447;-51
2021/12/19 08:26:30;;;;;;;;;;;20.70;51.00;;;;;;5114420;28;20298;-54
2021/12/19 08:29:02;;;;;;;;;;;20.70;50.90;;;;;;5114057;28;19930;-52
2021/12/19 08:31:29;;;;;;;;;;;20.70;50.90;;;;;;5096369;28;19962;-57
2021/12/19 08:33:57;;;;;;;;;;;20.70;50.90;;;;;;5114325;28;19931;-52
2021/12/19 08:36:25;;;;;;;;;;;20.70;50.90;;;;;;5112628;28;20014;-55
2021/12/19 08:38:52;;;;;;;;;;;20.70;50.90;;;;;;5114678;28;19955;-53
2021/12/19 08:41:20;;;;;;;;;;;20.70;50.90;;;;;;5114272;28;19924;-49
2021/12/19 08:43:47;;;;;;;;;;;20.70;50.80;;;;;;5114275;28;19923;-55
2021/12/19 08:46:14;;;;;;;;;;;20.70;50.80;;;;;;5114754;28;19973;-54
2021/12/19 08:48:41;;;;;;;;;;;20.80;50.90;;;;;;5114205;28;19955;-51
2021/12/19 08:51:09;;;;;;;;;;;20.80;50.80;;;;;;5112538;28;20018;-53
2021/12/19 08:53:36;;;;;;;;;;;20.80;50.80;;;;;;5113656;28;20387;-57
2021/12/19 08:56:03;;;;;;;;;;;20.80;50.80;;;;;;5114141;28;20354;-56
2021/12/19 08:58:30;;;;;;;;;;;20.80;50.70;;;;;;5095813;28;20394;-54
2021/12/19 09:01:02;;;;;;;;;;;20.80;50.70;;;;;;5113814;28;19924;-54
2021/12/19 09:03:29;;;;;;;;;;;20.80;50.70;;;;;;5113797;28;19978;-49
2021/12/19 09:05:57;;;;;;;;;;;20.80;50.60;;;;;;5094865;28;19977;-47
2021/12/19 09:08:24;;;;;;;;;;;20.80;50.60;;;;;;5095924;28;19989;-48
2021/12/19 09:10:52;;;;;;;;;;;20.80;50.60;;;;;;5113617;28;19930;-53
2021/12/19 09:13:19;;;;;;;;;;;20.80;50.60;;;;;;5113983;28;20014;-56
2021/12/19 09:15:46;;;;;;;;;;;20.80;50.50;;;;;;5114003;28;20331;-57
2021/12/19 09:18:13;;;;;;;;;;;20.90;50.60;;;;;;5113646;28;19924;-49
2021/12/19 09:20:40;;;;;;;;;;;20.90;50.50;;;;;;5112635;28;19946;-54
2021/12/19 09:23:07;;;;;;;;;;;20.90;50.50;;;;;;5113253;28;20386;-49
2021/12/19 09:25:35;;;;;;;;;;;20.90;50.50;;;;;;5113888;28;19962;-56
2021/12/19 09:28:02;;;;;;;;;;;20.90;50.40;;;;;;5115042;28;19924;-52
2021/12/19 09:30:29;;;;;;;;;;;20.90;50.40;;;;;;5117152;28;19974;-53
2021/12/19 09:32:56;;;;;;;;;;;20.90;50.30;;;;;;5117517;28;19990;-48
2021/12/19 09:35:23;;;;;;;;;;;20.90;50.30;;;;;;5117425;28;19977;-46
2021/12/19 09:37:50;;;;;;;;;;;21.00;50.30;;;;;;5115820;28;19967;-47
2021/12/19 09:40:21;;;;;;;;;;;21.00;50.30;;;;;;5099306;28;19963;-58
2021/12/19 09:42:50;;;;;;;;;;;21.00;50.20;;;;;;5117034;28;19971;-52
2021/12/19 09:45:18;;;;;;;;;;;21.00;50.20;;;;;;5116907;28;20010;-49
2021/12/19 09:47:45;;;;;;;;;;;21.10;50.20;;;;;;5116901;28;19962;-52
2021/12/19 09:50:13;;;;;;;;;;;21.10;50.10;;;;;;5116783;28;19967;-53
2021/12/19 09:52:40;;;;;;;;;;;21.10;50.10;;;;;;5115536;27;19930;-52
2021/12/19 09:55:07;;;;;;;;;;;21.10;50.00;;;;;;5117071;28;20309;-53
2021/12/19 09:57:34;;;;;;;;;;;21.10;50.00;;;;;;5117013;28;20302;-47
2021/12/19 10:00:02;;;;;;;;;;;21.10;50.00;;;;;;5116647;28;19924;-53
2021/12/19 10:02:29;;;;;;;;;;;21.20;50.00;;;;;;5116919;28;19977;-49
2021/12/19 10:04:56;;;;;;;;;;;21.20;50.00;;;;;;5116891;28;20286;-52
2021/12/19 10:07:28;;;;;;;;;;;21.20;49.90;;;;;;5115261;27;20018;-48
2021/12/19 10:10:00;;;;;;;;;;;21.20;49.80;;;;;;5116615;28;19928;-51
2021/12/19 10:15:07;;;;;;;;;;;21.30;49.80;;;;;;5116744;28;20280;-51
2021/12/19 10:17:34;;;;;;;;;;;21.30;49.70;;;;;;5116650;28;19923;-50
2021/12/19 10:20:03;;;;;;;;;;;21.30;49.70;;;;;;5116605;28;20333;-56
2021/12/19 10:22:38;;;;;;;;;;;21.30;49.60;;;;;;5114701;27;19924;-50
2021/12/19 10:25:22;;;;;;;;;;;21.40;49.70;;;;;;5116466;28;19931;-54
2021/12/19 10:27:50;;;;;;;;;;;21.40;49.70;;;;;;5117055;28;20287;-50
2021/12/19 10:30:17;;;;;;;;;;;21.40;49.60;;;;;;5116008;28;19924;-52
2021/12/19 10:32:51;;;;;;;;;;;21.40;49.60;;;;;;5116367;28;19924;-57
2021/12/19 10:35:20;;;;;;;;;;;21.40;49.60;;;;;;5116279;28;20354;-53
2021/12/19 10:37:47;;;;;;;;;;;21.40;49.50;;;;;;5114800;27;19977;-53
2021/12/19 10:40:14;;;;;;;;;;;21.40;49.40;;;;;;5116118;28;19924;-56
2021/12/19 10:42:45;;;;;;;;;;;21.40;49.40;;;;;;5097815;28;19924;-50
2021/12/19 10:45:32;;;;;;;;;;;21.40;49.40;;;;;;5116098;28;20010;-51
2021/12/19 10:48:08;;;;;;;;;;;21.40;49.40;;;;;;5116099;28;19927;-55
2021/12/19 10:50:46;;;;;;;;;;;21.50;49.40;;;;;;5115905;28;20333;-52
2021/12/19 10:53:15;;;;;;;;;;;21.50;49.30;;;;;;5114300;28;19924;-51
2021/12/19 10:55:46;;;;;;;;;;;21.50;49.20;;;;;;5115906;28;19989;-47
2021/12/19 10:58:34;;;;;;;;;;;21.50;49.20;;;;;;5115497;28;20022;-55
2021/12/19 11:01:04;;;;;;;;;;;21.50;49.10;;;;;;5115411;28;20006;-52
2021/12/19 11:03:38;;;;;;;;;;;21.60;49.10;;;;;;5115395;28;19924;-56
2021/12/19 11:06:15;;;;;;;;;;;21.60;49.10;;;;;;5115726;28;19955;-52
2021/12/19 11:08:49;;;;;;;;;;;21.60;49.10;;;;;;5114047;27;19924;-52
2021/12/19 11:11:35;;;;;;;;;;;21.60;49.00;;;;;;5115505;28;19923;-57
2021/12/19 11:14:03;;;;;;;;;;;21.60;49.00;;;;;;5115212;28;19930;-55
2021/12/19 11:16:30;;;;;;;;;;;21.60;49.00;;;;;;5115142;28;20014;-57
2021/12/19 11:18:57;;;;;;;;;;;21.60;49.00;;;;;;5115111;28;19924;-55
2021/12/19 11:21:25;;;;;;;;;;;21.60;49.00;;;;;;5115085;28;19970;-48
2021/12/19 11:23:52;;;;;;;;;;;21.60;49.00;;;;;;5113463;28;20006;-48
2021/12/19 11:26:21;;;;;;;;;;;21.60;49.00;;;;;;5115757;28;19935;-50
2021/12/19 11:28:53;;;;;;;;;;;21.60;49.00;;;;;;5114932;28;20401;-50
2021/12/19 11:31:24;;;;;;;;;;;21.60;49.00;;;;;;5115128;28;20006;-49
2021/12/19 11:34:11;;;;;;;;;;;21.60;49.00;;;;;;5096919;28;19924;-57
2021/12/19 11:36:40;;;;;;;;;;;21.70;49.00;;;;;;5115136;28;19928;-47
2021/12/19 11:39:08;;;;;;;;;;;21.70;49.00;;;;;;5113704;28;19924;-55
2021/12/19 11:41:36;;;;;;;;;;;21.70;49.00;;;;;;5114716;28;19930;-50
2021/12/19 11:44:06;;;;;;;;;;;21.60;48.90;;;;;;5114976;28;20343;-49
2021/12/19 11:46:42;;;;;;;;;;;21.70;49.00;;;;;;5114974;28;19963;-48
2021/12/19 11:49:10;;;;;;;;;;;21.70;49.00;;;;;;5096848;28;19935;-51
2021/12/19 11:51:36;;;;;;;;;;;21.70;49.00;;;;;;5114320;28;19923;-54
2021/12/19 11:54:16;;;;;;;;;;;21.70;49.00;;;;;;5113434;28;19966;-54
2021/12/19 11:57:09;;;;;;;;;;;21.70;49.00;;;;;;5114494;28;19931;-56
2021/12/19 11:59:38;;;;;;;;;;;21.70;49.00;;;;;;5114767;28;19985;-55
2021/12/19 12:02:24;;;;;;;;;;;21.70;49.00;;;;;;5114693;28;20344;-53
2021/12/19 12:05:21;;;;;;;;;;;21.70;48.90;;;;;;5114382;28;20018;-52
2021/12/19 12:08:09;;;;;;;;;;;21.70;48.90;;;;;;5016392;28;19925;-49
2021/12/19 12:10:52;;;;;;;;;;;21.70;48.90;;;;;;5031677;28;20019;-52
2021/12/19 12:13:30;;;;;;;;;;;21.70;48.90;;;;;;5031747;28;19929;-51
2021/12/19 12:16:05;;;;;;;;;;;21.70;48.90;;;;;;5032498;28;20336;-55
2021/12/19 12:18:34;;;;;;;;;;;21.70;48.80;;;;;;5031859;28;20004;-54
2021/12/19 12:21:25;;;;;;;;;;;21.70;48.80;;;;;;5031533;28;20290;-49
2021/12/19 12:23:58;;;;;;;;;;;21.70;48.80;;;;;;5029681;28;19979;-54
2021/12/19 12:26:29;;;;;;;;;;;21.70;48.80;;;;;;5031618;28;19983;-52
2021/12/19 12:28:56;;;;;;;;;;;21.70;48.80;;;;;;5031639;28;19925;-51
2021/12/19 12:31:24;;;;;;;;;;;21.70;48.80;;;;;;5031555;28;20397;-53
2021/12/19 12:33:51;;;;;;;;;;;21.70;48.80;;;;;;5031487;28;19987;-49
2021/12/19 12:36:18;;;;;;;;;;;21.70;48.80;;;;;;5024121;28;19925;-57
2021/12/19 12:38:49;;;;;;;;;;;21.70;48.70;;;;;;5003981;28;19925;-52
2021/12/19 12:41:40;;;;;;;;;;;21.70;48.70;;;;;;5031439;28;19929;-47
2021/12/19 12:44:11;;;;;;;;;;;21.70;48.70;;;;;;5067665;28;19924;-57
2021/12/19 12:46:38;;;;;;;;;;;21.70;48.70;;;;;;5114196;28;20038;-52
2021/12/19 12:49:05;;;;;;;;;;;21.70;48.70;;;;;;5114207;28;19924;-52
2021/12/19 12:51:34;;;;;;;;;;;21.70;48.70;;;;;;5114124;28;19924;-49
2021/12/19 12:54:08;;;;;;;;;;;21.70;48.70;;;;;;5112390;28;19977;-54
2021/12/19 12:56:42;;;;;;;;;;;21.70;48.60;;;;;;5113853;28;19975;-50
2021/12/19 12:59:10;;;;;;;;;;;21.70;48.60;;;;;;5113819;28;19973;-56
2021/12/19 13:01:46;;;;;;;;;;;21.70;48.60;;;;;;5113737;28;19924;-49
2021/12/19 13:04:17;;;;;;;;;;;21.70;48.60;;;;;;5117402;28;19924;-48
2021/12/19 13:06:46;;;;;;;;;;;21.70;48.50;;;;;;5117730;28;19986;-55
2021/12/19 13:09:14;;;;;;;;;;;21.70;48.50;;;;;;5116247;27;19967;-53
2021/12/19 13:11:42;;;;;;;;;;;21.70;48.50;;;;;;5117508;28;19967;-56
2021/12/19 13:14:12;;;;;;;;;;;21.70;48.50;;;;;;5117575;28;20044;-53
2021/12/19 13:16:44;;;;;;;;;;;21.70;48.50;;;;;;5117509;28;19935;-48
2021/12/19 13:19:30;;;;;;;;;;;21.70;48.50;;;;;;5117473;28;19924;-56
2021/12/19 13:21:57;;;;;;;;;;;21.80;48.50;;;;;;5117431;28;20002;-52
2021/12/19 13:24:24;;;;;;;;;;;21.80;48.50;;;;;;5116120;27;20338;-52
2021/12/19 13:27:03;;;;;;;;;;;21.80;48.60;;;;;;5117334;28;19924;-58
2021/12/19 13:29:30;;;;;;;;;;;21.80;48.60;;;;;;5117494;28;19924;-55
2021/12/19 13:32:17;;;;;;;;;;;21.80;48.60;;;;;;5117631;28;20027;-56
2021/12/19 13:34:44;;;;;;;;;;;21.80;48.60;;;;;;5117065;28;19928;-52
2021/12/19 13:37:12;;;;;;;;;;;21.80;48.60;;;;;;5117390;28;19923;-57
2021/12/19 13:39:41;;;;;;;;;;;21.80;48.60;;;;;;5115968;27;20307;-56
2021/12/19 13:42:08;;;;;;;;;;;21.80;48.60;;;;;;5118136;28;20010;-57
2021/12/19 13:44:35;;;;;;;;;;;21.80;48.60;;;;;;5116964;28;20458;-53
2021/12/19 13:47:13;;;;;;;;;;;21.80;48.60;;;;;;5116929;28;19971;-52
2021/12/19 13:49:40;;;;;;;;;;;21.80;48.60;;;;;;5099124;28;19924;-57
2021/12/19 13:52:07;;;;;;;;;;;21.80;48.60;;;;;;5116596;28;20030;-51
2021/12/19 13:54:38;;;;;;;;;;;21.80;48.60;;;;;;5115642;27;19931;-54
2021/12/19 13:57:15;;;;;;;;;;;21.80;48.70;;;;;;5117039;28;19930;-52
2021/12/19 13:59:42;;;;;;;;;;;21.80;48.60;;;;;;5098940;28;20019;-54
2021/12/19 14:02:14;;;;;;;;;;;21.80;48.70;;;;;;5116434;28;20294;-52
2021/12/19 14:04:41;;;;;;;;;;;21.80;48.70;;;;;;5117155;28;20340;-57
2021/12/19 14:07:13;;;;;;;;;;;21.80;48.70;;;;;;5116763;28;20332;-54
2021/12/19 14:09:57;;;;;;;;;;;21.80;48.70;;;;;;5096605;27;19923;-51
2021/12/19 14:12:39;;;;;;;;;;;21.80;48.70;;;;;;5137190;27;19924;-56
2021/12/19 14:15:07;;;;;;;;;;;21.80;48.80;;;;;;5136565;27;19952;-55
2021/12/19 14:17:34;;;;;;;;;;;21.80;48.80;;;;;;5137204;27;19992;-55
2021/12/19 14:20:03;;;;;;;;;;;21.80;48.80;;;;;;5118754;27;19930;-50
2021/12/19 14:22:31;;;;;;;;;;;21.80;48.80;;;;;;5136576;27;19927;-47
2021/12/19 14:25:03;;;;;;;;;;;21.80;48.80;;;;;;5123632;27;19924;-56
2021/12/19 14:27:35;;;;;;;;;;;21.80;48.90;;;;;;5116432;28;19982;-53
2021/12/19 14:30:06;;;;;;;;;;;21.80;48.80;;;;;;5116446;28;19923;-51
2021/12/19 14:32:55;;;;;;;;;;;21.80;48.80;;;;;;5116008;28;19923;-54
2021/12/19 14:35:24;;;;;;;;;;;21.80;48.80;;;;;;5115990;28;20382;-55
2021/12/19 14:37:52;;;;;;;;;;;21.80;48.80;;;;;;5116101;28;19962;-51
2021/12/19 14:40:21;;;;;;;;;;;21.80;48.80;;;;;;5114726;27;19928;-48
2021/12/19 14:42:49;;;;;;;;;;;21.90;49.00;;;;;;5115870;28;19967;-50
2021/12/19 14:45:24;;;;;;;;;;;21.80;48.90;;;;;;5116084;28;19959;-57
2021/12/19 14:47:51;;;;;;;;;;;21.80;48.90;;;;;;5115702;28;19924;-48
2021/12/19 14:50:25;;;;;;;;;;;21.80;49.00;;;;;;5115614;28;20383;-48
2021/12/19 14:53:01;;;;;;;;;;;21.80;49.00;;;;;;5115487;28;19930;-49
2021/12/19 14:55:29;;;;;;;;;;;21.80;49.00;;;;;;5114671;27;19977;-49
2021/12/19 14:57:56;;;;;;;;;;;21.80;49.00;;;;;;5116451;28;19924;-46
2021/12/19 15:00:23;;;;;;;;;;;21.80;49.00;;;;;;5115516;28;19927;-48
2021/12/19 15:02:50;;;;;;;;;;;21.80;49.00;;;;;;5115438;28;19949;-52
2021/12/19 15:05:17;;;;;;;;;;;21.80;49.00;;;;;;5115591;28;19977;-49
2021/12/19 15:07:46;;;;;;;;;;;21.80;49.60;;;;;;5115223;28;20387;-48
2021/12/19 15:10:14;;;;;;;;;;;21.80;49.00;;;;;;5114604;27;20010;-52
2021/12/19 15:12:42;;;;;;;;;;;21.80;49.00;;;;;;5115509;28;20278;-55
2021/12/19 15:15:09;;;;;;;;;;;21.80;49.10;;;;;;5115502;28;19924;-56
2021/12/19 15:17:36;;;;;;;;;;;21.80;49.10;;;;;;5115474;28;19982;-51
2021/12/19 15:20:04;;;;;;;;;;;21.80;49.10;;;;;;5115128;28;20443;-52
2021/12/19 15:22:33;;;;;;;;;;;21.80;49.10;;;;;;5115292;28;19963;-50
2021/12/19 15:25:00;;;;;;;;;;;21.80;49.10;;;;;;5113325;28;20317;-55
2021/12/19 15:27:27;;;;;;;;;;;21.80;49.20;;;;;;5115303;28;20349;-49
2021/12/19 15:29:54;;;;;;;;;;;21.80;49.20;;;;;;5096978;28;19931;-49
2021/12/19 15:32:22;;;;;;;;;;;21.80;49.80;;;;;;5114772;28;19950;-52
2021/12/19 15:34:49;;;;;;;;;;;21.80;49.20;;;;;;5115168;28;19992;-57
2021/12/19 15:37:16;;;;;;;;;;;21.80;49.20;;;;;;5115187;28;19953;-48
2021/12/19 15:39:43;;;;;;;;;;;21.80;49.20;;;;;;5113724;28;19924;-47
2021/12/19 15:42:10;;;;;;;;;;;21.80;49.20;;;;;;5115019;28;20441;-55